Time;durP1;ratioP1;P1;durP2;ratioP2;P2;SDS_P1;SDS_P2;PMS_P1;PMS_P2;Temp;Humidity;BMP_temperature;BMP_pressure;BME280_temperature;BME280_humidity;BME280_pressure;Samples;Min_cycle;Max_cycle;Signal;HPM_P1;HPM_P2
2021/07/06 00:00:32;;;;;;;1.67;1.57;;;16.70;99.90;;;;;;5040691;28;20435;-68
2021/07/06 00:02:59;;;;;;;4.20;1.90;;;16.60;99.90;;;;;;5053178;28;20794;-66
2021/07/06 00:05:25;;;;;;;1.80;1.70;;;16.60;99.90;;;;;;5050760;28;20443;-65
2021/07/06 00:07:51;;;;;;;2.33;2.13;;;16.50;99.90;;;;;;5053394;28;20771;-66
2021/07/06 00:10:19;;;;;;;1.97;1.87;;;16.60;99.90;;;;;;5047472;28;20415;-65
2021/07/06 00:12:45;;;;;;;2.00;1.90;;;16.60;99.90;;;;;;5038385;28;20855;-65
2021/07/06 00:15:13;;;;;;;2.40;2.20;;;16.60;99.90;;;;;;5038985;28;20455;-66
2021/07/06 00:17:39;;;;;;;6.63;2.07;;;16.60;99.90;;;;;;5036789;28;20409;-65
2021/07/06 00:20:11;;;;;;;2.10;2.00;;;16.60;99.90;;;;;;5040819;28;20472;-66
2021/07/06 00:22:37;;;;;;;2.20;2.00;;;16.60;99.90;;;;;;5056476;28;20455;-66
2021/07/06 00:25:05;;;;;;;3.90;2.47;;;16.60;99.90;;;;;;5053255;28;20460;-66
2021/07/06 00:27:30;;;;;;;1.80;1.70;;;16.60;99.90;;;;;;5057332;28;20426;-65
2021/07/06 00:29:56;;;;;;;1.73;1.63;;;16.60;99.90;;;;;;5039742;28;20559;-66
2021/07/06 00:32:22;;;;;;;1.70;1.60;;;16.60;99.90;;;;;;5034865;28;20182;-66
2021/07/06 00:34:47;;;;;;;1.80;1.70;;;16.60;99.90;;;;;;5044266;28;20204;-65
2021/07/06 00:37:13;;;;;;;3.23;1.80;;;16.50;99.90;;;;;;5034439;28;20212;-66
2021/07/06 00:39:39;;;;;;;1.67;1.57;;;16.50;99.90;;;;;;5048259;28;20209;-66
2021/07/06 00:42:10;;;;;;;4.20;1.93;;;16.50;99.90;;;;;;5054721;28;20248;-66
2021/07/06 00:44:36;;;;;;;2.23;2.10;;;16.50;99.90;;;;;;5043379;28;20518;-66
2021/07/06 00:47:07;;;;;;;1.87;1.77;;;16.50;99.90;;;;;;5056160;28;20419;-65
2021/07/06 00:49:33;;;;;;;2.23;2.00;;;16.50;99.90;;;;;;5043238;28;20205;-66
2021/07/06 00:51:59;;;;;;;2.20;2.07;;;16.50;99.90;;;;;;5036799;28;20397;-66
2021/07/06 00:54:25;;;;;;;1.77;1.67;;;16.50;99.90;;;;;;5046852;28;20419;-66
2021/07/06 00:56:51;;;;;;;1.63;1.53;;;16.50;99.90;;;;;;5036485;28;20609;-66
2021/07/06 00:59:19;;;;;;;1.90;1.63;;;16.50;99.90;;;;;;5046292;28;20447;-66
2021/07/06 01:01:44;;;;;;;2.57;1.97;;;16.50;99.90;;;;;;5056294;28;20404;-66
2021/07/06 01:04:11;;;;;;;2.60;2.07;;;16.50;99.90;;;;;;5047175;28;20815;-65
2021/07/06 01:06:36;;;;;;;1.67;1.57;;;16.50;99.90;;;;;;5054374;28;20227;-66
2021/07/06 01:09:03;;;;;;;2.00;1.90;;;16.50;99.90;;;;;;5048078;28;20440;-66
2021/07/06 01:11:29;;;;;;;3.63;2.20;;;16.50;99.90;;;;;;5051081;28;20539;-65
2021/07/06 01:13:54;;;;;;;1.40;1.37;;;16.50;99.90;;;;;;5052513;28;20430;-66
2021/07/06 01:16:20;;;;;;;2.00;1.90;;;16.50;99.90;;;;;;5056055;28;20260;-66
2021/07/06 01:18:46;;;;;;;3.90;2.07;;;16.50;99.90;;;;;;5051230;28;20197;-66
2021/07/06 01:21:12;;;;;;;2.27;1.87;;;16.50;99.90;;;;;;5035586;28;20650;-66
2021/07/06 01:23:38;;;;;;;2.80;2.00;;;16.50;99.90;;;;;;5039092;28;20210;-66
2021/07/06 01:26:06;;;;;;;2.10;1.90;;;16.60;99.90;;;;;;5035915;28;20499;-66
2021/07/06 01:28:33;;;;;;;2.23;2.13;;;16.60;99.90;;;;;;5036571;28;20452;-65
2021/07/06 01:30:59;;;;;;;3.53;1.87;;;16.60;99.90;;;;;;5055830;28;20427;-66
2021/07/06 01:33:27;;;;;;;1.50;1.40;;;16.60;99.90;;;;;;5051347;28;20447;-66
2021/07/06 01:36:01;;;;;;;1.87;1.50;;;16.60;99.90;;;;;;5035851;28;20180;-66
2021/07/06 01:38:27;;;;;;;2.10;1.60;;;16.60;99.90;;;;;;5053469;28;20415;-65
2021/07/06 01:40:53;;;;;;;2.00;1.90;;;16.60;99.90;;;;;;5055816;28;20394;-66
2021/07/06 01:43:19;;;;;;;1.47;1.37;;;16.60;99.90;;;;;;5052733;28;20829;-66
2021/07/06 01:45:45;;;;;;;2.60;2.20;;;16.50;99.90;;;;;;5055671;28;20415;-65
2021/07/06 01:48:10;;;;;;;1.80;1.70;;;16.50;99.90;;;;;;5039158;28;20772;-65
2021/07/06 01:50:45;;;;;;;1.93;1.83;;;16.50;99.90;;;;;;5034219;28;20661;-66
2021/07/06 01:53:13;;;;;;;1.47;1.37;;;16.50;99.90;;;;;;5049533;28;20195;-65
2021/07/06 01:55:43;;;;;;;1.73;1.67;;;16.50;99.90;;;;;;5053770;28;20431;-66
2021/07/06 01:58:13;;;;;;;2.80;1.43;;;16.50;99.90;;;;;;5054943;28;20549;-65
2021/07/06 02:00:42;;;;;;;1.87;1.77;;;16.60;99.90;;;;;;5052280;28;20483;-66
2021/07/06 02:03:09;;;;;;;3.10;1.80;;;16.60;99.90;;;;;;5055172;28;20505;-66
2021/07/06 02:05:46;;;;;;;2.27;2.17;;;16.60;99.90;;;;;;5042135;28;20425;-66
2021/07/06 02:08:15;;;;;;;1.97;1.53;;;16.50;99.90;;;;;;5050683;28;20458;-65
2021/07/06 02:10:42;;;;;;;1.70;1.60;;;16.50;99.90;;;;;;5046506;28;20462;-66
2021/07/06 02:13:13;;;;;;;1.37;1.33;;;16.50;99.90;;;;;;5055092;28;20514;-66
2021/07/06 02:15:40;;;;;;;5.33;2.37;;;16.50;99.90;;;;;;5042660;28;20429;-66
2021/07/06 02:18:15;;;;;;;1.43;1.33;;;16.50;99.90;;;;;;5034793;28;20519;-66
2021/07/06 02:20:41;;;;;;;1.60;1.50;;;16.40;99.90;;;;;;5047548;28;20884;-66
2021/07/06 02:23:07;;;;;;;3.83;2.40;;;16.30;99.90;;;;;;5054689;28;20466;-66
2021/07/06 02:25:33;;;;;;;2.00;1.63;;;16.30;99.90;;;;;;5044383;28;20424;-66
2021/07/06 02:27:59;;;;;;;1.60;1.50;;;16.30;99.90;;;;;;5034392;28;20174;-66
2021/07/06 02:30:25;;;;;;;1.43;1.40;;;16.20;99.90;;;;;;5040724;28;20486;-66
2021/07/06 02:32:52;;;;;;;2.10;1.77;;;16.20;99.90;;;;;;5051260;28;20439;-66
2021/07/06 02:35:18;;;;;;;1.67;1.57;;;16.20;99.90;;;;;;5047370;28;20772;-66
2021/07/06 02:37:45;;;;;;;2.20;2.00;;;16.20;99.90;;;;;;5034320;28;20408;-66
2021/07/06 02:40:13;;;;;;;2.50;2.30;;;16.20;99.90;;;;;;5040599;28;20439;-66
2021/07/06 02:42:39;;;;;;;1.50;1.50;;;16.10;99.90;;;;;;5039585;28;20423;-66
2021/07/06 02:45:07;;;;;;;9.60;2.63;;;16.10;99.90;;;;;;5052167;28;20397;-66
2021/07/06 02:47:34;;;;;;;1.63;1.53;;;16.10;99.90;;;;;;5054068;28;20825;-66
2021/07/06 02:50:00;;;;;;;1.83;1.73;;;16.10;99.90;;;;;;5037296;28;20440;-66
2021/07/06 02:52:25;;;;;;;2.33;2.13;;;16.10;99.90;;;;;;5046252;28;20458;-66
2021/07/06 02:54:51;;;;;;;2.00;1.90;;;16.00;99.90;;;;;;5038843;28;20456;-66
2021/07/06 02:57:35;;;;;;;2.00;1.90;;;16.00;99.90;;;;;;5045429;28;20663;-66
2021/07/06 03:00:10;;;;;;;1.70;1.60;;;16.00;99.90;;;;;;5037828;28;20213;-65
2021/07/06 03:02:37;;;;;;;1.73;1.63;;;16.00;99.90;;;;;;5034176;28;20464;-66
2021/07/06 03:05:05;;;;;;;2.17;1.97;;;16.00;99.90;;;;;;5050172;28;20431;-66
2021/07/06 03:07:30;;;;;;;2.40;2.20;;;16.00;99.90;;;;;;5050375;28;20420;-66
2021/07/06 03:09:56;;;;;;;1.60;1.50;;;15.90;99.90;;;;;;5053820;28;20480;-66
2021/07/06 03:12:21;;;;;;;1.60;1.50;;;15.90;99.90;;;;;;5044262;28;20201;-66
2021/07/06 03:14:47;;;;;;;5.60;2.03;;;15.80;99.90;;;;;;5034052;28;20256;-66
2021/07/06 03:17:13;;;;;;;2.70;2.50;;;15.80;99.90;;;;;;5036723;28;20188;-66
2021/07/06 03:19:38;;;;;;;3.30;2.23;;;15.80;99.90;;;;;;5033767;28;20200;-66
2021/07/06 03:22:04;;;;;;;2.80;2.60;;;15.80;99.90;;;;;;5040279;28;20204;-66
2021/07/06 03:24:29;;;;;;;2.33;2.13;;;15.70;99.90;;;;;;5050773;28;20359;-66
2021/07/06 03:26:55;;;;;;;2.27;2.07;;;15.70;99.90;;;;;;5038603;28;20184;-66
2021/07/06 03:29:21;;;;;;;1.97;1.80;;;15.70;99.90;;;;;;5053093;28;20193;-66
2021/07/06 03:31:46;;;;;;;2.00;1.90;;;15.70;99.90;;;;;;5051724;28;20184;-65
2021/07/06 03:34:12;;;;;;;2.03;1.93;;;15.70;99.90;;;;;;5053727;28;20170;-66
2021/07/06 03:36:38;;;;;;;2.20;2.10;;;15.70;99.90;;;;;;5051808;28;20196;-66
2021/07/06 03:39:03;;;;;;;4.73;2.40;;;15.70;99.90;;;;;;5052927;28;20238;-65
2021/07/06 03:41:29;;;;;;;2.10;1.90;;;15.80;99.90;;;;;;5037248;28;20270;-66
2021/07/06 03:43:54;;;;;;;2.03;1.83;;;15.80;99.90;;;;;;5033191;28;20291;-66
2021/07/06 03:46:20;;;;;;;3.27;2.17;;;15.80;99.90;;;;;;5034847;28;20178;-66
2021/07/06 03:48:46;;;;;;;2.40;2.30;;;15.90;99.90;;;;;;5033234;28;20190;-67
2021/07/06 03:51:12;;;;;;;2.03;1.93;;;15.90;99.90;;;;;;5041480;28;20227;-66
2021/07/06 03:53:38;;;;;;;2.87;1.93;;;15.90;99.90;;;;;;5053402;28;20250;-65
2021/07/06 03:56:04;;;;;;;3.03;2.73;;;15.90;99.90;;;;;;5039613;28;20428;-66
2021/07/06 03:58:29;;;;;;;2.23;2.03;;;15.90;99.90;;;;;;5032711;28;20194;-66
2021/07/06 04:00:55;;;;;;;2.33;2.00;;;15.90;99.90;;;;;;5050576;28;20188;-66
2021/07/06 04:03:24;;;;;;;2.63;2.43;;;16.00;99.90;;;;;;5053365;28;20302;-66
2021/07/06 04:05:50;;;;;;;2.33;1.70;;;16.00;99.90;;;;;;5047834;28;20493;-66
2021/07/06 04:08:16;;;;;;;2.27;2.07;;;16.10;99.90;;;;;;5052562;28;20418;-66
2021/07/06 04:10:41;;;;;;;2.83;2.63;;;16.10;99.90;;;;;;5037451;28;20281;-66
2021/07/06 04:13:07;;;;;;;1.33;1.30;;;16.20;99.90;;;;;;5035353;28;20177;-66
2021/07/06 04:15:32;;;;;;;2.23;2.00;;;16.20;99.90;;;;;;5039354;28;20189;-65
2021/07/06 04:17:58;;;;;;;2.07;1.97;;;16.30;99.90;;;;;;5032739;28;20197;-66
2021/07/06 04:20:24;;;;;;;2.30;2.10;;;16.40;99.90;;;;;;5045417;28;20197;-66
2021/07/06 04:22:49;;;;;;;2.80;2.60;;;16.60;99.90;;;;;;5052806;28;20270;-66
2021/07/06 04:25:16;;;;;;;2.00;1.90;;;16.80;99.90;;;;;;5043781;28;20597;-66
2021/07/06 04:27:42;;;;;;;1.90;1.80;;;17.10;99.90;;;;;;5052460;28;20268;-66
2021/07/06 04:30:09;;;;;;;2.20;2.03;;;17.40;99.90;;;;;;5042528;28;20423;-66
2021/07/06 04:32:35;;;;;;;1.73;1.63;;;17.90;99.90;;;;;;5041745;28;20435;-66
2021/07/06 04:35:00;;;;;;;1.63;1.50;;;18.40;99.90;;;;;;5044013;28;20528;-66
2021/07/06 04:37:26;;;;;;;1.30;1.30;;;18.70;99.90;;;;;;5032623;28;21055;-66
2021/07/06 04:39:52;;;;;;;1.33;1.27;;;19.00;99.90;;;;;;5034026;28;20205;-66
2021/07/06 04:42:17;;;;;;;1.50;1.40;;;19.10;99.90;;;;;;5039699;28;20635;-67
2021/07/06 04:44:44;;;;;;;1.53;1.43;;;19.10;99.90;;;;;;5034327;28;20185;-66
2021/07/06 04:47:09;;;;;;;3.67;1.83;;;19.00;99.90;;;;;;5032717;28;20170;-66
2021/07/06 04:49:35;;;;;;;1.67;1.53;;;18.90;99.90;;;;;;5047306;28;20452;-65
2021/07/06 04:52:02;;;;;;;1.63;1.53;;;18.90;99.90;;;;;;5034422;28;20191;-65
2021/07/06 04:54:27;;;;;;;1.80;1.70;;;18.80;99.90;;;;;;5047972;28;20181;-65
2021/07/06 04:56:54;;;;;;;1.87;1.77;;;18.90;99.90;;;;;;5053553;28;20492;-65
2021/07/06 04:59:20;;;;;;;1.90;1.80;;;19.00;99.90;;;;;;5041463;28;20229;-65
2021/07/06 05:01:46;;;;;;;1.70;1.60;;;19.00;99.90;;;;;;5036193;28;20465;-66
2021/07/06 05:04:13;;;;;;;2.07;1.97;;;19.10;99.90;;;;;;5048681;28;20465;-65
2021/07/06 05:06:38;;;;;;;1.20;1.10;;;19.20;99.90;;;;;;5048662;28;20982;-66
2021/07/06 05:09:04;;;;;;;4.00;1.83;;;19.40;99.90;;;;;;5047879;28;20577;-66
2021/07/06 05:11:30;;;;;;;1.00;1.00;;;19.70;99.90;;;;;;5056496;28;20185;-65
2021/07/06 05:13:55;;;;;;;1.53;1.43;;;19.90;99.90;;;;;;5045557;28;20182;-65
2021/07/06 05:16:21;;;;;;;1.40;1.40;;;20.10;99.90;;;;;;5053725;28;20187;-65
2021/07/06 05:18:46;;;;;;;1.90;1.47;;;20.20;99.90;;;;;;5045612;28;20225;-65
2021/07/06 05:21:12;;;;;;;1.43;1.33;;;20.30;99.90;;;;;;5036340;28;20182;-66
2021/07/06 05:23:38;;;;;;;3.27;1.80;;;20.30;99.90;;;;;;5043438;28;20239;-66
2021/07/06 05:26:03;;;;;;;2.60;1.60;;;20.20;99.90;;;;;;5041520;28;20178;-66
2021/07/06 05:28:29;;;;;;;2.13;1.90;;;20.10;99.90;;;;;;5041269;28;20181;-66
2021/07/06 05:30:55;;;;;;;1.80;1.70;;;19.90;99.90;;;;;;5054521;28;20205;-66
2021/07/06 05:33:21;;;;;;;1.63;1.50;;;19.80;99.90;;;;;;5046891;28;20585;-66
2021/07/06 05:35:50;;;;;;;5.13;2.30;;;19.80;99.90;;;;;;5055655;28;20499;-66
2021/07/06 05:38:15;;;;;;;1.50;1.50;;;19.90;99.90;;;;;;5055295;28;20797;-66
2021/07/06 05:40:43;;;;;;;1.67;1.57;;;20.10;99.90;;;;;;5053958;28;20411;-66
2021/07/06 05:43:10;;;;;;;1.70;1.60;;;20.30;99.90;;;;;;5047945;28;20205;-66
2021/07/06 05:45:36;;;;;;;1.47;1.37;;;20.50;99.90;;;;;;5047801;28;20443;-67
2021/07/06 05:48:03;;;;;;;1.43;1.20;;;20.70;99.90;;;;;;5051099;28;20819;-67
2021/07/06 05:50:29;;;;;;;1.40;1.30;;;20.90;99.90;;;;;;5038293;28;20447;-66
2021/07/06 05:52:54;;;;;;;1.83;1.17;;;20.90;99.90;;;;;;5042203;28;20438;-66
2021/07/06 05:55:20;;;;;;;3.37;1.40;;;21.00;99.90;;;;;;5053179;28;20816;-66
2021/07/06 05:57:46;;;;;;;0.70;0.70;;;21.40;99.90;;;;;;5038411;28;20556;-65
2021/07/06 06:00:14;;;;;;;1.10;1.00;;;21.90;99.90;;;;;;5043414;28;20211;-66
2021/07/06 06:02:40;;;;;;;1.50;1.43;;;22.40;99.90;;;;;;5041730;28;20208;-69
2021/07/06 06:05:07;;;;;;;1.40;1.30;;;22.90;99.90;;;;;;5050093;28;20722;-69
2021/07/06 06:07:40;;;;;;;1.00;1.00;;;23.20;99.90;;;;;;5054122;28;20398;-69
2021/07/06 06:10:08;;;;;;;1.07;0.90;;;23.40;99.90;;;;;;5055097;28;20439;-68
2021/07/06 06:12:35;;;;;;;1.10;1.00;;;23.50;99.90;;;;;;5054061;28;20442;-68
2021/07/06 06:15:01;;;;;;;1.10;1.10;;;23.50;99.90;;;;;;5055067;28;20374;-69
2021/07/06 06:17:26;;;;;;;1.40;1.10;;;23.50;99.90;;;;;;5040335;28;20408;-69
2021/07/06 06:19:52;;;;;;;1.70;1.60;;;23.50;99.90;;;;;;5048356;28;20440;-68
2021/07/06 06:22:18;;;;;;;1.80;1.70;;;23.50;99.90;;;;;;5044299;28;20237;-69
2021/07/06 06:24:43;;;;;;;1.63;1.50;;;23.40;99.90;;;;;;5042641;28;20196;-69
2021/07/06 06:27:09;;;;;;;3.03;1.30;;;23.30;99.90;;;;;;5040151;28;20545;-67
2021/07/06 06:29:35;;;;;;;1.20;1.10;;;23.30;99.90;;;;;;5045469;28;20198;-70
2021/07/06 06:32:01;;;;;;;1.43;1.33;;;23.30;99.90;;;;;;5034427;28;20196;-69
2021/07/06 06:34:27;;;;;;;7.93;5.07;;;23.50;99.90;;;;;;5038416;28;21069;-68
2021/07/06 06:36:52;;;;;;;6.57;2.80;;;23.70;99.90;;;;;;5044290;28;20447;-66
2021/07/06 06:39:18;;;;;;;1.63;1.47;;;24.00;99.90;;;;;;5046479;28;20288;-64
2021/07/06 06:41:43;;;;;;;1.17;1.07;;;24.00;99.90;;;;;;5040912;28;20196;-66
2021/07/06 06:44:09;;;;;;;1.83;1.00;;;24.10;99.90;;;;;;5044881;28;20213;-63
2021/07/06 06:46:35;;;;;;;1.30;1.20;;;24.20;99.90;;;;;;5041080;28;20592;-67
2021/07/06 06:49:04;;;;;;;1.33;1.27;;;24.20;99.90;;;;;;5046978;28;20201;-68
2021/07/06 06:51:31;;;;;;;1.87;1.50;;;24.00;99.90;;;;;;5040653;28;20209;-70
2021/07/06 06:53:56;;;;;;;1.40;1.30;;;24.10;99.90;;;;;;5053943;28;20752;-69
2021/07/06 06:56:22;;;;;;;1.40;1.30;;;24.20;99.90;;;;;;5049532;28;20504;-68
2021/07/06 06:58:48;;;;;;;2.83;1.30;;;24.40;99.90;;;;;;5044406;28;20289;-69
2021/07/06 07:01:14;;;;;;;1.50;1.30;;;24.60;99.90;;;;;;5043999;28;20532;-68
2021/07/06 07:03:40;;;;;;;1.40;1.20;;;24.80;99.90;;;;;;5034426;28;20293;-68
2021/07/06 07:06:06;;;;;;;2.30;1.63;;;24.90;99.90;;;;;;5033965;28;20894;-66
2021/07/06 07:08:33;;;;;;;1.50;1.40;;;25.00;99.90;;;;;;5051567;28;20201;-68
2021/07/06 07:10:59;;;;;;;1.77;1.67;;;25.10;99.90;;;;;;5038040;28;20430;-70
2021/07/06 07:13:26;;;;;;;2.10;1.60;;;25.30;99.90;;;;;;5051203;28;20708;-71
2021/07/06 07:15:52;;;;;;;1.40;1.30;;;25.40;99.90;;;;;;5045232;28;20216;-70
2021/07/06 07:18:18;;;;;;;1.93;1.70;;;25.50;99.90;;;;;;5046512;28;20436;-70
2021/07/06 07:20:44;;;;;;;1.23;1.13;;;25.70;99.90;;;;;;5048037;28;20443;-69
2021/07/06 07:23:09;;;;;;;1.80;1.10;;;26.00;99.90;;;;;;5048855;28;20595;-70
2021/07/06 07:25:35;;;;;;;1.30;1.30;;;26.30;99.90;;;;;;5044343;28;20191;-69
2021/07/06 07:28:01;;;;;;;1.20;1.20;;;26.60;99.70;;;;;;5042763;28;20185;-72
2021/07/06 07:30:26;;;;;;;1.10;1.00;;;27.00;99.80;;;;;;5039951;28;20200;-72
2021/07/06 07:32:52;;;;;;;1.00;1.00;;;27.30;99.30;;;;;;5053905;28;20262;-73
2021/07/06 07:35:19;;;;;;;1.00;1.00;;;27.80;98.90;;;;;;5043281;28;20190;-74
2021/07/06 07:37:46;;;;;;;2.30;1.73;;;28.70;98.80;;;;;;5038586;28;20585;-74
2021/07/06 07:40:13;;;;;;;1.43;1.33;;;29.90;97.10;;;;;;5047111;28;20448;-75
2021/07/06 07:42:39;;;;;;;1.13;1.13;;;31.30;94.80;;;;;;5041763;28;20464;-74
2021/07/06 07:45:06;;;;;;;1.27;1.27;;;32.60;90.40;;;;;;5046829;28;20482;-74
2021/07/06 07:47:31;;;;;;;2.40;1.00;;;33.80;87.00;;;;;;5043115;28;20200;-72
2021/07/06 07:49:57;;;;;;;1.00;1.00;;;35.00;82.00;;;;;;5041060;28;20443;-74
2021/07/06 07:52:23;;;;;;;1.30;1.20;;;36.10;75.70;;;;;;5044043;28;20227;-73
2021/07/06 07:54:49;;;;;;;1.10;1.10;;;37.10;71.00;;;;;;5036189;28;20624;-73
2021/07/06 07:57:23;;;;;;;0.90;0.90;;;37.80;66.10;;;;;;5046448;28;20223;-65
2021/07/06 07:59:50;;;;;;;1.47;1.40;;;38.50;63.30;;;;;;5049057;28;20200;-65
2021/07/06 08:02:16;;;;;;;1.03;1.03;;;38.90;60.80;;;;;;5064344;28;22383;-66
2021/07/06 08:04:41;;;;;;;0.90;0.90;;;38.80;59.10;;;;;;5050782;28;20503;-65
2021/07/06 08:07:07;;;;;;;1.20;1.20;;;38.20;57.80;;;;;;5055790;28;20174;-66
2021/07/06 08:09:33;;;;;;;1.93;1.60;;;37.90;59.20;;;;;;5053137;28;20197;-65
2021/07/06 08:11:59;;;;;;;1.17;1.17;;;37.10;57.70;;;;;;5053195;28;20169;-66
2021/07/06 08:14:24;;;;;;;1.17;1.10;;;36.10;59.60;;;;;;5052508;28;20636;-66
2021/07/06 08:16:52;;;;;;;2.03;0.97;;;35.00;62.40;;;;;;5055287;28;20174;-66
2021/07/06 08:19:18;;;;;;;1.27;1.17;;;34.10;64.70;;;;;;5044250;28;20236;-65
2021/07/06 08:21:43;;;;;;;1.40;1.27;;;33.40;67.50;;;;;;5045858;28;20792;-64
2021/07/06 08:24:09;;;;;;;1.10;1.10;;;32.80;70.30;;;;;;5045855;28;20201;-66
2021/07/06 08:26:36;;;;;;;1.03;1.03;;;32.30;72.20;;;;;;5044482;28;20184;-66
2021/07/06 08:29:05;;;;;;;1.30;1.00;;;32.70;72.80;;;;;;5044079;28;20217;-65
2021/07/06 08:31:31;;;;;;;1.27;1.27;;;33.70;72.40;;;;;;5055044;28;20413;-66
2021/07/06 08:33:57;;;;;;;1.30;1.20;;;34.70;69.10;;;;;;5056611;28;20416;-66
2021/07/06 08:36:22;;;;;;;1.20;1.20;;;35.20;70.40;;;;;;5056054;28;20264;-65
2021/07/06 08:38:50;;;;;;;1.30;1.20;;;35.80;66.80;;;;;;5050016;28;20676;-69
2021/07/06 08:41:16;;;;;;;1.70;1.60;;;36.70;66.00;;;;;;5056138;28;20186;-66
2021/07/06 08:43:42;;;;;;;1.27;1.27;;;37.60;61.90;;;;;;5056287;28;21053;-66
2021/07/06 08:46:08;;;;;;;1.40;1.30;;;37.90;60.40;;;;;;5055805;28;20173;-67
2021/07/06 08:48:35;;;;;;;1.10;1.10;;;38.20;62.90;;;;;;5038221;28;20935;-67
2021/07/06 08:51:04;;;;;;;1.47;1.37;;;38.70;61.00;;;;;;5047193;28;20596;-66
2021/07/06 08:53:30;;;;;;;1.47;1.47;;;39.10;59.50;;;;;;5051407;28;20922;-66
2021/07/06 08:55:58;;;;;;;1.73;1.63;;;38.60;59.30;;;;;;5050139;28;20468;-65
2021/07/06 08:58:24;;;;;;;1.07;1.07;;;38.10;58.70;;;;;;5032904;28;20284;-68
2021/07/06 09:00:50;;;;;;;1.70;1.60;;;37.30;57.70;;;;;;5051051;28;20783;-67
2021/07/06 09:03:16;;;;;;;1.20;1.20;;;36.70;59.50;;;;;;5051912;28;20448;-67
2021/07/06 09:05:41;;;;;;;1.60;1.30;;;36.20;62.40;;;;;;5041347;28;20177;-67
2021/07/06 09:08:08;;;;;;;2.30;2.10;;;36.20;62.70;;;;;;5052817;28;20184;-67
2021/07/06 09:10:36;;;;;;;2.00;1.90;;;36.50;62.90;;;;;;5037029;28;20195;-67
2021/07/06 09:13:27;;;;;;;3.73;1.30;;;37.10;61.20;;;;;;5043197;28;20452;-65
2021/07/06 09:15:54;;;;;;;1.30;1.30;;;37.60;59.20;;;;;;5047241;28;20511;-66
2021/07/06 09:18:21;;;;;;;2.07;1.30;;;37.60;58.80;;;;;;5039747;28;20424;-68
2021/07/06 09:21:05;;;;;;;1.37;1.27;;;37.30;58.50;;;;;;5045888;28;20424;-69
2021/07/06 09:23:37;;;;;;;1.10;1.00;;;36.90;59.20;;;;;;5049372;28;20850;-71
2021/07/06 09:26:34;;;;;;;2.10;1.93;;;36.30;59.90;;;;;;5038800;28;20433;-67
2021/07/06 09:29:01;;;;;;;4.43;1.53;;;35.10;62.40;;;;;;5035229;28;20453;-67
2021/07/06 09:31:31;;;;;;;15.90;1.97;;;33.80;64.90;;;;;;5038802;28;20462;-67
2021/07/06 09:34:02;;;;;;;2.17;1.97;;;31.90;71.10;;;;;;5038316;28;20404;-68
2021/07/06 09:36:41;;;;;;;1.93;1.80;;;29.90;76.80;;;;;;5038511;28;20390;-69
2021/07/06 09:39:16;;;;;;;5.27;1.50;;;28.10;83.90;;;;;;5055135;28;20504;-66
2021/07/06 09:42:03;;;;;;;1.50;1.40;;;26.80;89.60;;;;;;5050111;28;20968;-70
2021/07/06 09:44:34;;;;;;;4.60;1.10;;;26.00;91.80;;;;;;5036299;28;20482;-69
2021/07/06 09:47:08;;;;;;;0.80;0.80;;;25.50;93.00;;;;;;5043192;28;20459;-69
2021/07/06 09:49:35;;;;;;;1.93;0.97;;;24.90;93.70;;;;;;5043312;28;20455;-71
2021/07/06 09:52:10;;;;;;;0.60;0.60;;;24.60;94.80;;;;;;5055343;28;20498;-69
2021/07/06 09:54:37;;;;;;;3.33;0.60;;;24.30;95.50;;;;;;5036227;28;20504;-70
2021/07/06 09:57:21;;;;;;;0.97;0.60;;;24.20;96.10;;;;;;5035440;28;20417;-69
2021/07/06 10:00:25;;;;;;;0.70;0.70;;;24.00;96.90;;;;;;5034962;28;20490;-71
2021/07/06 10:03:01;;;;;;;1.50;0.60;;;24.10;98.30;;;;;;5040522;28;20430;-70
2021/07/06 10:05:29;;;;;;;1.00;0.73;;;24.10;98.00;;;;;;5055103;28;20914;-70
2021/07/06 10:07:55;;;;;;;1.30;0.80;;;24.30;98.40;;;;;;5054736;28;20770;-69
2021/07/06 10:10:22;;;;;;;0.50;0.50;;;24.60;98.90;;;;;;5055117;28;20410;-69
2021/07/06 10:12:49;;;;;;;1.07;0.63;;;25.20;97.70;;;;;;5048457;28;20434;-69
2021/07/06 10:15:20;;;;;;;0.70;0.50;;;25.70;96.70;;;;;;5034975;28;20380;-68
2021/07/06 10:17:47;;;;;;;0.43;0.40;;;26.30;96.30;;;;;;5034760;28;20504;-69
2021/07/06 10:20:20;;;;;;;0.50;0.50;;;26.70;95.30;;;;;;5034852;28;20935;-68
2021/07/06 10:22:47;;;;;;;0.70;0.63;;;27.40;94.80;;;;;;5039755;28;20458;-68
2021/07/06 10:25:13;;;;;;;0.60;0.60;;;27.80;93.50;;;;;;5054879;28;20869;-68
2021/07/06 10:27:48;;;;;;;0.60;0.60;;;28.10;92.30;;;;;;5054433;28;20417;-69
2021/07/06 10:30:17;;;;;;;2.13;1.20;;;28.10;92.70;;;;;;5054701;28;20434;-69
2021/07/06 10:32:49;;;;;;;0.60;0.60;;;28.20;92.00;;;;;;5049767;28;20950;-69
2021/07/06 10:35:15;;;;;;;1.70;0.80;;;28.60;92.30;;;;;;5034732;28;20412;-68
2021/07/06 10:37:42;;;;;;;1.37;1.27;;;28.60;91.20;;;;;;5034304;28;20392;-69
2021/07/06 10:40:23;;;;;;;0.70;0.70;;;28.40;91.90;;;;;;5034618;28;20443;-70
2021/07/06 10:42:51;;;;;;;1.10;0.90;;;28.40;91.00;;;;;;5051890;28;20426;-70
2021/07/06 10:45:32;;;;;;;1.00;0.90;;;28.20;91.90;;;;;;5054595;28;20470;-68
2021/07/06 10:47:58;;;;;;;0.77;0.77;;;28.20;91.70;;;;;;5053869;28;20439;-69
2021/07/06 10:50:30;;;;;;;1.20;0.93;;;28.10;92.50;;;;;;5054605;28;20419;-71
2021/07/06 10:53:17;;;;;;;1.50;1.20;;;27.90;92.70;;;;;;5035718;28;20641;-68
2021/07/06 10:55:44;;;;;;;0.80;0.77;;;27.90;93.00;;;;;;5033581;28;20395;-69
2021/07/06 10:58:10;;;;;;;1.13;0.90;;;27.70;92.00;;;;;;5033567;28;20482;-69
2021/07/06 11:00:43;;;;;;;0.63;0.63;;;27.60;92.70;;;;;;5034063;28;20957;-68
2021/07/06 11:03:14;;;;;;;1.20;1.10;;;27.30;93.20;;;;;;5050893;28;20477;-68
2021/07/06 11:05:40;;;;;;;1.17;1.07;;;27.20;93.00;;;;;;5053674;28;20489;-68
2021/07/06 11:08:06;;;;;;;1.10;1.00;;;27.00;94.20;;;;;;5033872;28;20530;-69
2021/07/06 11:10:36;;;;;;;0.87;0.80;;;26.90;94.60;;;;;;5034008;28;20194;-69
2021/07/06 11:13:12;;;;;;;0.87;0.87;;;26.80;94.60;;;;;;5033960;28;20186;-69
2021/07/06 11:15:38;;;;;;;2.70;0.67;;;26.90;95.00;;;;;;5034054;28;20424;-70
2021/07/06 11:18:08;;;;;;;0.67;0.63;;;27.00;94.40;;;;;;5052299;28;20424;-70
2021/07/06 11:20:41;;;;;;;1.20;1.10;;;26.90;94.40;;;;;;5053553;28;20227;-69
2021/07/06 11:23:16;;;;;;;0.73;0.73;;;27.00;94.40;;;;;;5053753;28;20779;-69
2021/07/06 11:25:43;;;;;;;0.70;0.70;;;26.90;94.00;;;;;;5053320;28;20415;-68
2021/07/06 11:28:24;;;;;;;1.03;0.90;;;26.90;94.40;;;;;;5033498;28;20769;-69
2021/07/06 11:31:02;;;;;;;1.60;0.90;;;26.90;95.20;;;;;;5033853;28;20430;-69
2021/07/06 11:33:31;;;;;;;0.70;0.70;;;26.90;94.80;;;;;;5033734;28;20490;-70
2021/07/06 11:36:03;;;;;;;0.97;0.97;;;27.00;94.30;;;;;;5034694;28;20379;-70
2021/07/06 11:38:40;;;;;;;0.93;0.93;;;27.20;94.50;;;;;;5053172;28;20777;-70
2021/07/06 11:41:07;;;;;;;0.70;0.70;;;27.40;94.40;;;;;;5053669;28;20404;-69
2021/07/06 11:43:34;;;;;;;1.00;1.00;;;27.70;94.60;;;;;;5053514;28;20434;-69
2021/07/06 11:46:01;;;;;;;1.07;0.97;;;27.60;94.30;;;;;;5052987;28;20405;-67
2021/07/06 11:48:29;;;;;;;0.60;0.60;;;27.50;94.30;;;;;;5052882;28;20759;-67
2021/07/06 11:50:56;;;;;;;0.97;0.80;;;27.30;94.40;;;;;;5053495;28;20444;-69
2021/07/06 11:53:33;;;;;;;0.77;0.77;;;27.20;94.20;;;;;;5053367;28;20834;-69
2021/07/06 11:56:00;;;;;;;16.87;2.00;;;27.00;94.40;;;;;;5051899;28;20457;-69
2021/07/06 11:58:28;;;;;;;0.80;0.70;;;26.90;94.70;;;;;;5030972;28;20720;-69
2021/07/06 12:00:55;;;;;;;0.70;0.70;;;26.60;94.70;;;;;;5033374;28;20440;-70
2021/07/06 12:03:32;;;;;;;0.90;0.70;;;26.40;94.80;;;;;;5033072;28;20952;-68
2021/07/06 12:06:12;;;;;;;1.23;1.00;;;26.10;95.40;;;;;;5052629;28;20413;-68
2021/07/06 12:08:47;;;;;;;1.20;1.10;;;25.90;96.10;;;;;;5058449;28;20731;-68
2021/07/06 12:11:18;;;;;;;0.87;0.87;;;25.80;96.50;;;;;;5060069;28;20885;-69
2021/07/06 12:13:48;;;;;;;0.77;0.77;;;25.80;97.00;;;;;;5059736;28;20390;-69
2021/07/06 12:16:15;;;;;;;0.80;0.73;;;25.80;97.00;;;;;;5042849;28;20416;-68
2021/07/06 12:18:56;;;;;;;0.60;0.60;;;25.80;98.20;;;;;;5039655;28;20392;-68
2021/07/06 12:21:33;;;;;;;1.07;1.00;;;25.80;98.50;;;;;;5040175;28;20400;-69
2021/07/06 12:24:04;;;;;;;0.50;0.50;;;25.80;98.00;;;;;;5040115;28;20444;-67
2021/07/06 12:26:30;;;;;;;0.70;0.70;;;25.90;97.00;;;;;;5058223;28;20417;-69
2021/07/06 12:28:56;;;;;;;0.60;0.60;;;25.90;96.80;;;;;;5059464;28;20563;-68
2021/07/06 12:31:25;;;;;;;0.73;0.73;;;25.90;96.50;;;;;;5059799;28;20491;-68
2021/07/06 12:34:03;;;;;;;1.80;0.87;;;25.90;97.10;;;;;;5059887;28;20470;-69
2021/07/06 12:36:35;;;;;;;0.70;0.70;;;25.90;97.40;;;;;;5041140;28;20771;-68
2021/07/06 12:39:10;;;;;;;0.70;0.63;;;25.70;96.50;;;;;;5039866;28;20429;-69
2021/07/06 12:41:40;;;;;;;0.83;0.67;;;25.40;96.70;;;;;;5039777;28;20419;-69
2021/07/06 12:44:06;;;;;;;2.03;1.00;;;25.20;97.40;;;;;;5039625;28;20920;-69
2021/07/06 12:46:32;;;;;;;1.03;1.03;;;25.10;98.50;;;;;;5056911;28;20466;-69
2021/07/06 12:49:00;;;;;;;0.97;0.90;;;25.00;98.20;;;;;;5059055;28;20193;-69
2021/07/06 12:51:25;;;;;;;1.10;1.00;;;25.00;98.60;;;;;;5059565;28;20216;-69